Time;durP1;ratioP1;P1;durP2;ratioP2;P2;SDS_P1;SDS_P2;PMS_P1;PMS_P2;Temp;Humidity;BMP_temperature;BMP_pressure;BME280_temperature;BME280_humidity;BME280_pressure;Samples;Min_cycle;Max_cycle;Signal;HPM_P1;HPM_P2
2023/05/04 00:01:59;;;;;;;15.45;8.05;;;9.90;99.90;;;;;;5036600;28;20029;-72
2023/05/04 00:04:24;;;;;;;19.23;8.57;;;9.90;99.90;;;;;;5051755;28;20036;-73
2023/05/04 00:06:50;;;;;;;19.83;9.15;;;9.90;99.90;;;;;;5044896;28;20040;-73
2023/05/04 00:09:15;;;;;;;16.45;8.18;;;9.90;99.90;;;;;;5040133;28;20465;-72
2023/05/04 00:11:41;;;;;;;15.70;8.15;;;9.80;99.90;;;;;;5034952;28;20540;-73
2023/05/04 00:14:07;;;;;;;16.58;7.93;;;9.80;99.90;;;;;;5051018;28;20381;-73
2023/05/04 00:16:34;;;;;;;17.77;9.73;;;9.80;99.90;;;;;;5036193;28;20052;-73
2023/05/04 00:18:59;;;;;;;20.02;10.20;;;9.80;99.90;;;;;;5037772;28;20473;-74
2023/05/04 00:21:25;;;;;;;16.35;8.73;;;9.70;99.90;;;;;;5048361;28;20033;-73
2023/05/04 00:23:50;;;;;;;19.55;9.30;;;9.70;99.90;;;;;;5049725;28;20129;-73
2023/05/04 00:26:16;;;;;;;18.73;9.25;;;9.70;99.90;;;;;;5050375;28;20400;-73
2023/05/04 00:28:41;;;;;;;18.60;9.40;;;9.70;99.90;;;;;;5037014;28;20073;-73
2023/05/04 00:31:07;;;;;;;22.48;9.20;;;9.70;99.90;;;;;;5041254;28;20361;-73
2023/05/04 00:33:32;;;;;;;18.90;9.60;;;9.70;99.90;;;;;;5049050;28;20086;-73
2023/05/04 00:35:58;;;;;;;17.45;9.35;;;9.70;99.90;;;;;;5037177;28;20045;-72
2023/05/04 00:38:24;;;;;;;18.58;9.27;;;9.70;99.90;;;;;;5048225;28;20129;-73
2023/05/04 00:40:49;;;;;;;19.70;8.60;;;9.60;99.90;;;;;;5037457;28;20030;-73
2023/05/04 00:43:15;;;;;;;21.35;8.95;;;9.60;99.90;;;;;;5036371;28;20099;-73
2023/05/04 00:45:41;;;;;;;22.02;11.00;;;9.60;99.90;;;;;;5050069;28;20037;-73
2023/05/04 00:48:07;;;;;;;18.02;9.07;;;9.60;99.90;;;;;;5036150;28;20370;-73
2023/05/04 00:50:33;;;;;;;21.30;9.18;;;9.60;99.90;;;;;;5045026;28;20052;-74
2023/05/04 00:53:03;;;;;;;21.65;9.85;;;9.60;99.90;;;;;;5043691;28;20036;-73
2023/05/04 00:55:28;;;;;;;15.50;8.85;;;9.50;99.90;;;;;;5039114;28;20048;-73
2023/05/04 00:57:55;;;;;;;18.63;9.90;;;9.50;99.90;;;;;;5036421;28;20034;-73
2023/05/04 01:00:21;;;;;;;17.60;9.23;;;9.50;99.90;;;;;;5037705;28;20028;-73
2023/05/04 01:02:48;;;;;;;21.48;10.30;;;9.50;99.90;;;;;;5041194;28;20064;-72
2023/05/04 01:05:14;;;;;;;17.23;9.45;;;9.50;99.90;;;;;;5044108;28;20025;-73
2023/05/04 01:08:00;;;;;;;24.40;12.82;;;9.50;99.90;;;;;;5043179;28;20032;-72
2023/05/04 01:10:48;;;;;;;19.27;9.15;;;9.50;99.90;;;;;;5025513;28;20029;-73
2023/05/04 01:13:15;;;;;;;16.98;9.20;;;9.50;99.90;;;;;;5051156;28;20032;-72
2023/05/04 01:15:41;;;;;;;18.88;8.88;;;9.50;99.90;;;;;;5037286;28;20052;-73
2023/05/04 01:18:07;;;;;;;17.77;8.57;;;9.40;99.90;;;;;;5042746;28;20108;-73
2023/05/04 01:20:33;;;;;;;20.48;9.38;;;9.40;99.90;;;;;;5052749;28;20036;-73
2023/05/04 01:22:59;;;;;;;20.08;8.95;;;9.40;99.90;;;;;;5052646;28;20381;-73
2023/05/04 01:25:33;;;;;;;15.73;8.18;;;9.40;99.90;;;;;;5039308;28;20458;-73
2023/05/04 01:28:05;;;;;;;18.92;9.02;;;9.40;99.90;;;;;;5038966;28;20042;-74
2023/05/04 01:30:36;;;;;;;18.40;9.45;;;9.40;99.90;;;;;;5032712;28;20402;-73
2023/05/04 01:33:03;;;;;;;20.45;9.13;;;9.40;99.90;;;;;;5043958;28;20025;-74
2023/05/04 01:35:28;;;;;;;18.23;8.13;;;9.30;99.90;;;;;;5036669;28;20107;-73
2023/05/04 01:37:54;;;;;;;16.63;8.07;;;9.30;99.90;;;;;;5049168;28;20439;-73
2023/05/04 01:40:20;;;;;;;16.73;8.40;;;9.40;99.90;;;;;;5034622;28;20424;-74
2023/05/04 01:42:45;;;;;;;15.55;7.80;;;9.30;99.90;;;;;;5034701;28;20171;-73
2023/05/04 01:45:11;;;;;;;16.50;8.10;;;9.30;99.90;;;;;;5034518;28;20025;-74
2023/05/04 01:47:37;;;;;;;15.65;7.90;;;9.30;99.90;;;;;;5048223;28;20025;-73
2023/05/04 01:50:04;;;;;;;16.55;7.68;;;9.30;99.90;;;;;;5033760;28;20643;-73
2023/05/04 01:52:30;;;;;;;15.82;7.72;;;9.30;99.90;;;;;;5038888;28;20083;-73
2023/05/04 01:54:56;;;;;;;16.15;7.82;;;9.30;99.90;;;;;;5039477;28;20040;-73
2023/05/04 01:57:22;;;;;;;16.45;7.38;;;9.20;99.90;;;;;;5037657;28;20030;-73
2023/05/04 01:59:47;;;;;;;19.13;7.93;;;9.20;99.90;;;;;;5042236;28;20029;-73
2023/05/04 02:02:13;;;;;;;15.07;7.78;;;9.20;99.90;;;;;;5032452;28;20065;-73
2023/05/04 02:04:40;;;;;;;16.75;8.55;;;9.20;99.90;;;;;;5032429;28;20104;-73
2023/05/04 02:07:06;;;;;;;14.98;7.40;;;9.20;99.90;;;;;;5032346;28;20113;-73
2023/05/04 02:09:31;;;;;;;16.33;7.80;;;9.20;99.90;;;;;;5032017;28;20057;-73
2023/05/04 02:11:57;;;;;;;19.90;9.10;;;9.20;99.90;;;;;;5032279;28;20448;-73
2023/05/04 02:14:23;;;;;;;16.60;7.70;;;9.20;99.90;;;;;;5032139;28;20496;-73
2023/05/04 02:16:48;;;;;;;20.13;8.48;;;9.10;99.90;;;;;;5030591;28;20085;-73
2023/05/04 02:19:14;;;;;;;21.25;8.80;;;9.10;99.90;;;;;;5032383;28;20160;-73
2023/05/04 02:21:42;;;;;;;15.82;7.50;;;9.10;99.90;;;;;;5031757;28;20389;-73
2023/05/04 02:24:08;;;;;;;16.17;7.28;;;9.00;99.90;;;;;;5031652;28;20037;-73
2023/05/04 02:26:35;;;;;;;18.45;7.93;;;9.10;99.90;;;;;;5031415;28;20079;-73
2023/05/04 02:29:02;;;;;;;16.55;7.80;;;9.00;99.90;;;;;;5031599;28;20049;-73
2023/05/04 02:31:28;;;;;;;16.33;7.20;;;9.00;99.90;;;;;;5032471;28;20151;-73
2023/05/04 02:33:53;;;;;;;18.80;7.70;;;9.00;99.90;;;;;;5029476;28;20116;-73
2023/05/04 02:36:19;;;;;;;20.15;7.50;;;9.00;99.90;;;;;;5031937;28;20160;-73
2023/05/04 02:38:45;;;;;;;13.05;7.50;;;9.00;99.90;;;;;;5031925;28;20393;-73
2023/05/04 02:41:10;;;;;;;17.33;7.65;;;9.00;99.90;;;;;;5031907;28;20058;-73
2023/05/04 02:43:36;;;;;;;20.45;8.35;;;8.90;99.90;;;;;;5031767;28;20045;-73
2023/05/04 02:46:02;;;;;;;16.25;7.68;;;8.90;99.90;;;;;;5031565;28;20040;-74
2023/05/04 02:48:27;;;;;;;15.68;7.63;;;8.90;99.90;;;;;;5031837;28;20035;-73
2023/05/04 02:50:53;;;;;;;19.13;7.78;;;8.90;99.90;;;;;;5031809;28;20056;-73
2023/05/04 02:53:18;;;;;;;13.57;7.03;;;8.90;99.90;;;;;;5031663;28;20041;-73
2023/05/04 02:55:44;;;;;;;18.98;7.72;;;8.90;99.90;;;;;;5030397;28;20112;-73
2023/05/04 02:58:10;;;;;;;21.00;8.10;;;8.90;99.90;;;;;;5030792;28;20038;-73
2023/05/04 03:00:35;;;;;;;18.05;7.72;;;8.90;99.90;;;;;;5031641;28;20057;-73
2023/05/04 03:03:01;;;;;;;17.52;7.70;;;8.90;99.90;;;;;;5031561;28;20422;-73
2023/05/04 03:05:26;;;;;;;15.52;7.28;;;8.90;99.90;;;;;;5031294;28;20033;-73
2023/05/04 03:07:52;;;;;;;17.90;7.82;;;8.90;99.90;;;;;;5031364;28;20061;-74
2023/05/04 03:10:18;;;;;;;20.00;8.23;;;8.90;99.90;;;;;;5031461;28;20478;-74
2023/05/04 03:12:43;;;;;;;17.55;7.75;;;8.90;99.90;;;;;;5031153;28;20037;-73
2023/05/04 03:15:09;;;;;;;14.85;7.78;;;8.90;99.90;;;;;;5031537;28;20047;-73
2023/05/04 03:17:35;;;;;;;17.38;7.95;;;8.90;99.90;;;;;;5031715;28;20037;-73
2023/05/04 03:20:01;;;;;;;17.83;8.20;;;8.90;99.90;;;;;;5031427;28;20107;-73
2023/05/04 03:22:26;;;;;;;12.70;7.20;;;8.90;99.90;;;;;;5033651;28;20038;-73
2023/05/04 03:24:52;;;;;;;16.60;7.80;;;8.80;99.90;;;;;;5035533;28;20068;-73
2023/05/04 03:27:17;;;;;;;16.63;7.70;;;8.80;99.90;;;;;;5033132;28;20073;-73
2023/05/04 03:29:43;;;;;;;19.33;8.35;;;8.80;99.90;;;;;;5034964;28;20068;-72
2023/05/04 03:32:08;;;;;;;18.90;8.10;;;8.80;99.90;;;;;;5035282;28;20037;-73
2023/05/04 03:34:34;;;;;;;17.90;8.35;;;8.80;99.90;;;;;;5034929;28;20033;-73
2023/05/04 03:37:00;;;;;;;16.63;7.72;;;8.70;99.90;;;;;;5033862;28;20132;-73
2023/05/04 03:39:25;;;;;;;18.38;8.70;;;8.70;99.90;;;;;;5035285;28;20037;-73
2023/05/04 03:41:51;;;;;;;18.02;7.97;;;8.70;99.90;;;;;;5034803;28;20412;-73
2023/05/04 03:44:17;;;;;;;20.92;9.40;;;8.70;99.90;;;;;;5035254;28;20029;-72
2023/05/04 03:46:43;;;;;;;17.13;8.45;;;8.70;99.90;;;;;;5032427;28;20045;-73
2023/05/04 03:49:08;;;;;;;20.60;8.23;;;8.70;99.90;;;;;;5032280;28;20033;-72
2023/05/04 03:51:34;;;;;;;19.23;8.25;;;8.70;99.90;;;;;;5026228;28;20050;-72
2023/05/04 03:54:00;;;;;;;19.50;8.82;;;8.70;99.90;;;;;;5033118;28;20017;-73
2023/05/04 03:56:26;;;;;;;19.88;9.50;;;8.70;99.90;;;;;;5032821;28;20045;-73
2023/05/04 03:58:51;;;;;;;18.40;9.45;;;8.70;99.90;;;;;;5033465;28;20734;-73
2023/05/04 04:01:17;;;;;;;19.35;9.52;;;8.60;99.90;;;;;;5033441;28;20038;-73
2023/05/04 04:03:43;;;;;;;20.15;9.23;;;8.60;99.90;;;;;;5033516;28;20133;-72
2023/05/04 04:06:09;;;;;;;18.52;9.13;;;8.60;99.90;;;;;;5033770;28;20071;-72
2023/05/04 04:08:35;;;;;;;18.23;9.40;;;8.60;99.90;;;;;;5033633;28;20109;-73
2023/05/04 04:11:00;;;;;;;17.90;9.10;;;8.60;99.90;;;;;;5033431;28;20549;-73
2023/05/04 04:13:26;;;;;;;19.02;8.30;;;8.60;99.90;;;;;;5033264;28;20135;-73
2023/05/04 04:15:52;;;;;;;18.67;9.48;;;8.60;99.90;;;;;;5033612;28;20044;-73
2023/05/04 04:18:18;;;;;;;18.85;9.60;;;8.60;99.90;;;;;;5033711;28;20026;-73
2023/05/04 04:20:44;;;;;;;20.27;9.75;;;8.60;99.90;;;;;;5033256;28;20590;-73
2023/05/04 04:23:10;;;;;;;19.85;9.02;;;8.60;99.90;;;;;;5030622;28;20100;-73
2023/05/04 04:25:36;;;;;;;19.50;9.10;;;8.60;99.90;;;;;;5034133;28;20549;-72
2023/05/04 04:28:02;;;;;;;17.70;8.60;;;8.60;99.90;;;;;;5033261;28;20052;-72
2023/05/04 04:30:28;;;;;;;19.70;10.18;;;8.60;99.90;;;;;;5033003;28;20049;-73
2023/05/04 04:32:55;;;;;;;17.55;10.02;;;8.60;99.90;;;;;;5033147;28;20454;-73
2023/05/04 04:35:22;;;;;;;18.77;9.30;;;8.70;99.90;;;;;;5033143;28;20034;-74
2023/05/04 04:37:47;;;;;;;19.45;9.85;;;8.70;99.90;;;;;;5032766;28;20106;-73
2023/05/04 04:40:13;;;;;;;19.13;9.73;;;8.70;99.90;;;;;;5033094;28;20106;-73
2023/05/04 04:42:38;;;;;;;21.20;9.45;;;8.70;99.90;;;;;;5033374;28;20093;-72
2023/05/04 04:45:05;;;;;;;19.45;10.13;;;8.70;99.90;;;;;;5032924;28;20112;-72
2023/05/04 04:47:31;;;;;;;21.10;9.45;;;8.80;99.90;;;;;;5031484;28;20036;-72
2023/05/04 04:49:57;;;;;;;20.35;9.40;;;8.80;99.90;;;;;;5033040;28;20032;-73
2023/05/04 04:52:23;;;;;;;21.17;9.52;;;8.80;99.90;;;;;;5032745;28;20037;-73
2023/05/04 04:54:50;;;;;;;18.80;9.98;;;8.80;99.90;;;;;;5032552;28;20021;-74
2023/05/04 04:57:15;;;;;;;19.38;9.90;;;8.80;99.90;;;;;;5032985;28;20088;-72
2023/05/04 04:59:41;;;;;;;21.70;9.77;;;8.90;99.90;;;;;;5031605;28;20462;-72
2023/05/04 05:02:08;;;;;;;22.80;10.20;;;9.00;99.90;;;;;;5032306;28;20036;-73
2023/05/04 05:04:34;;;;;;;22.17;9.70;;;9.00;99.90;;;;;;5033836;28;20049;-73
2023/05/04 05:07:00;;;;;;;20.75;10.27;;;9.00;99.90;;;;;;5039326;28;20028;-73
2023/05/04 05:09:25;;;;;;;19.15;9.10;;;9.00;99.90;;;;;;5039723;28;20033;-74
2023/05/04 05:11:51;;;;;;;20.17;9.93;;;9.10;99.90;;;;;;5047052;28;20033;-73
2023/05/04 05:14:16;;;;;;;21.38;9.73;;;9.20;99.90;;;;;;5037227;28;20025;-73
2023/05/04 05:16:42;;;;;;;22.77;10.25;;;9.20;99.90;;;;;;5049968;28;20091;-70
2023/05/04 05:19:07;;;;;;;20.50;9.93;;;9.30;99.90;;;;;;5039925;28;20089;-72
2023/05/04 05:21:33;;;;;;;22.23;10.70;;;9.30;99.90;;;;;;5048301;28;20516;-72
2023/05/04 05:23:58;;;;;;;20.58;10.40;;;9.40;99.90;;;;;;5047874;28;20032;-72
2023/05/04 05:26:24;;;;;;;21.08;9.98;;;9.50;99.90;;;;;;5036791;28;20429;-72
2023/05/04 05:28:50;;;;;;;21.02;9.70;;;9.60;99.90;;;;;;5049663;28;20075;-72
2023/05/04 05:31:16;;;;;;;22.70;11.05;;;9.70;99.90;;;;;;5040385;28;20093;-71
2023/05/04 05:33:41;;;;;;;18.38;9.75;;;9.70;99.90;;;;;;5040253;28;20101;-71
2023/05/04 05:36:07;;;;;;;20.27;9.93;;;9.80;99.90;;;;;;5044337;28;20117;-71
2023/05/04 05:38:33;;;;;;;20.67;10.32;;;10.00;99.90;;;;;;5043755;28;20075;-71
2023/05/04 05:40:58;;;;;;;23.60;9.82;;;10.00;99.90;;;;;;5035680;28;20060;-72
2023/05/04 05:43:24;;;;;;;20.25;9.40;;;10.10;99.90;;;;;;5041902;28;20029;-72
2023/05/04 05:45:49;;;;;;;21.30;9.73;;;10.20;99.90;;;;;;5040789;28;20529;-72
2023/05/04 05:48:15;;;;;;;21.15;9.90;;;10.20;99.90;;;;;;5038063;28;20052;-72
2023/05/04 05:50:40;;;;;;;16.88;9.30;;;10.20;99.90;;;;;;5049642;28;20045;-71
2023/05/04 05:53:06;;;;;;;17.48;8.75;;;10.20;99.90;;;;;;5031927;28;20017;-72
2023/05/04 05:55:31;;;;;;;22.45;10.02;;;10.30;99.90;;;;;;5037882;28;20056;-72
2023/05/04 05:57:57;;;;;;;20.83;10.07;;;10.40;99.90;;;;;;5033888;28;20030;-72
2023/05/04 06:00:23;;;;;;;22.95;10.65;;;10.40;99.90;;;;;;5033350;28;20108;-71
2023/05/04 06:02:50;;;;;;;19.90;10.10;;;10.50;99.90;;;;;;5038085;28;20025;-71
2023/05/04 06:05:15;;;;;;;19.55;9.73;;;10.50;99.90;;;;;;5051253;28;20134;-72
2023/05/04 06:07:41;;;;;;;19.25;10.65;;;10.60;99.90;;;;;;5043337;28;20029;-71
2023/05/04 06:10:07;;;;;;;19.70;10.10;;;10.60;99.90;;;;;;5038404;28;20029;-72
2023/05/04 06:12:33;;;;;;;20.58;9.85;;;10.80;99.90;;;;;;5049699;28;20052;-72
2023/05/04 06:14:59;;;;;;;22.58;9.93;;;10.90;99.90;;;;;;5046408;28;20088;-72
2023/05/04 06:17:24;;;;;;;20.20;9.55;;;11.00;99.90;;;;;;5036133;28;20458;-72
2023/05/04 06:19:50;;;;;;;21.88;10.40;;;11.20;99.90;;;;;;5038201;28;20038;-71
2023/05/04 06:22:16;;;;;;;20.10;9.48;;;11.40;99.90;;;;;;5048264;28;20445;-72
2023/05/04 06:24:41;;;;;;;22.20;10.85;;;11.90;99.90;;;;;;5035957;28;20024;-71
2023/05/04 06:27:07;;;;;;;23.58;9.80;;;12.60;99.90;;;;;;5036774;28;20100;-72
2023/05/04 06:29:33;;;;;;;19.23;9.75;;;13.40;99.90;;;;;;5031916;28;20338;-72
2023/05/04 06:31:59;;;;;;;16.67;7.20;;;14.20;99.90;;;;;;5035530;28;20523;-72
2023/05/04 06:34:24;;;;;;;20.55;8.50;;;15.00;99.90;;;;;;5030785;28;20033;-73
2023/05/04 06:36:50;;;;;;;21.52;8.15;;;15.70;99.60;;;;;;5029531;28;20052;-72
2023/05/04 06:39:16;;;;;;;16.73;8.07;;;16.10;98.50;;;;;;5029534;28;20075;-73
2023/05/04 06:41:41;;;;;;;16.67;8.10;;;16.10;97.90;;;;;;5031760;28;20101;-72
2023/05/04 06:44:07;;;;;;;18.98;8.52;;;16.40;97.80;;;;;;5031664;28;20018;-72
2023/05/04 06:46:35;;;;;;;14.55;7.50;;;17.00;96.40;;;;;;5031524;28;20033;-72
2023/05/04 06:49:03;;;;;;;15.05;7.90;;;17.50;95.70;;;;;;5031163;28;20021;-72
2023/05/04 06:51:28;;;;;;;17.15;7.80;;;17.70;95.10;;;;;;5035849;28;20029;-73
2023/05/04 06:53:54;;;;;;;15.63;7.40;;;17.90;94.90;;;;;;5038659;28;20028;-72
2023/05/04 06:56:20;;;;;;;14.63;7.28;;;18.00;94.30;;;;;;5047537;28;20377;-72
2023/05/04 06:58:46;;;;;;;16.60;7.05;;;18.00;94.00;;;;;;5018945;28;20108;-72
2023/05/04 07:01:11;;;;;;;15.38;7.55;;;17.80;94.10;;;;;;5044601;28;20024;-72
2023/05/04 07:03:37;;;;;;;17.33;7.30;;;17.60;94.30;;;;;;5042083;28;20110;-72
2023/05/04 07:06:03;;;;;;;16.15;8.10;;;17.60;94.60;;;;;;5037399;28;20079;-72
2023/05/04 07:08:29;;;;;;;15.27;7.30;;;17.60;94.20;;;;;;5031394;28;20040;-72
2023/05/04 07:10:55;;;;;;;15.43;7.70;;;17.60;94.30;;;;;;5034581;28;20047;-72
2023/05/04 07:13:21;;;;;;;16.65;7.45;;;17.70;94.30;;;;;;5051467;28;20418;-72
2023/05/04 07:15:47;;;;;;;14.63;8.10;;;17.80;93.80;;;;;;5039781;28;20041;-72
2023/05/04 07:18:12;;;;;;;18.50;6.78;;;17.60;94.00;;;;;;5031811;28;20034;-72
2023/05/04 07:20:40;;;;;;;18.00;7.95;;;17.50;94.10;;;;;;5045012;28;20091;-72
2023/05/04 07:23:06;;;;;;;15.85;8.15;;;17.30;94.50;;;;;;5036530;28;20039;-73
2023/05/04 07:25:31;;;;;;;17.98;7.60;;;17.00;94.60;;;;;;5040561;28;20455;-72
2023/05/04 07:27:57;;;;;;;14.65;7.90;;;16.80;95.00;;;;;;5048498;28;20470;-72
2023/05/04 07:30:24;;;;;;;16.60;7.60;;;16.70;95.20;;;;;;5050921;28;20021;-72
2023/05/04 07:32:50;;;;;;;17.80;8.10;;;16.60;95.40;;;;;;5035761;28;20092;-72
2023/05/04 07:35:16;;;;;;;14.98;7.20;;;16.60;95.50;;;;;;5043721;28;20033;-72
2023/05/04 07:37:41;;;;;;;16.45;7.10;;;16.70;95.50;;;;;;5042680;28;20029;-72
2023/05/04 07:40:08;;;;;;;15.60;7.63;;;16.60;95.50;;;;;;5036555;28;20025;-71
2023/05/04 07:42:33;;;;;;;16.45;7.85;;;16.70;95.50;;;;;;5047926;28;20104;-73
2023/05/04 07:45:00;;;;;;;14.63;7.03;;;16.60;95.40;;;;;;5037052;28;20279;-74
2023/05/04 07:47:25;;;;;;;18.80;8.60;;;16.50;95.60;;;;;;5042328;28;20025;-72
2023/05/04 07:49:51;;;;;;;14.50;8.15;;;16.50;95.70;;;;;;5043869;28;20029;-71
2023/05/04 07:52:17;;;;;;;16.08;7.70;;;16.60;95.70;;;;;;5035496;28;20067;-72
2023/05/04 07:54:43;;;;;;;20.02;8.38;;;16.80;95.20;;;;;;5035588;28;20029;-72
2023/05/04 07:57:08;;;;;;;19.23;8.40;;;16.90;95.50;;;;;;5042407;28;20041;-72
2023/05/04 07:59:34;;;;;;;15.25;7.20;;;17.30;95.40;;;;;;5051019;28;20053;-72
2023/05/04 08:01:59;;;;;;;16.73;8.10;;;17.80;94.90;;;;;;5043434;28;20495;-73
2023/05/04 08:04:25;;;;;;;15.38;8.45;;;18.30;94.10;;;;;;5047605;28;20388;-72
2023/05/04 08:06:51;;;;;;;16.80;8.20;;;18.60;93.70;;;;;;5034479;28;20112;-73
2023/05/04 08:09:17;;;;;;;16.70;7.82;;;19.10;93.20;;;;;;5047726;28;20690;-72
2023/05/04 08:11:44;;;;;;;17.08;7.47;;;19.70;92.50;;;;;;5054824;28;20513;-72
2023/05/04 08:14:10;;;;;;;15.68;7.80;;;20.40;91.70;;;;;;5040206;28;20447;-73
2023/05/04 08:16:36;;;;;;;15.38;7.03;;;20.90;91.10;;;;;;5050923;28;20036;-73
2023/05/04 08:19:01;;;;;;;14.15;7.10;;;21.40;90.20;;;;;;5039881;28;20020;-72
2023/05/04 08:21:27;;;;;;;16.42;6.85;;;21.40;89.40;;;;;;5044933;28;20029;-72
2023/05/04 08:23:53;;;;;;;16.90;7.75;;;21.20;89.50;;;;;;5047455;28;20100;-73
2023/05/04 08:26:19;;;;;;;16.05;7.63;;;21.00;90.10;;;;;;5038516;28;20026;-72
2023/05/04 08:28:45;;;;;;;13.55;6.75;;;21.00;90.20;;;;;;5039894;28;20090;-72
2023/05/04 08:31:11;;;;;;;16.38;7.93;;;21.20;89.80;;;;;;5041549;28;20079;-73
2023/05/04 08:33:37;;;;;;;16.33;7.15;;;21.50;89.40;;;;;;5032855;28;20040;-72
2023/05/04 08:36:06;;;;;;;16.02;7.15;;;21.90;88.80;;;;;;5047403;28;20053;-72
2023/05/04 08:38:31;;;;;;;13.30;7.13;;;22.40;87.30;;;;;;5034570;28;20029;-73
2023/05/04 08:41:00;;;;;;;15.73;7.07;;;22.80;86.40;;;;;;5038794;28;20082;-72
2023/05/04 08:43:28;;;;;;;12.75;7.35;;;23.10;85.50;;;;;;5043735;28;20418;-72
2023/05/04 08:45:54;;;;;;;14.25;7.40;;;23.30;84.10;;;;;;5046659;28;20060;-72
2023/05/04 08:48:19;;;;;;;11.95;6.72;;;23.60;84.40;;;;;;5037768;28;20109;-71
2023/05/04 08:50:45;;;;;;;16.13;6.97;;;24.30;82.30;;;;;;5050816;28;20441;-73
2023/05/04 08:53:13;;;;;;;12.05;6.68;;;24.90;81.10;;;;;;5039877;28;20040;-73
2023/05/04 08:55:41;;;;;;;13.18;7.22;;;25.60;79.10;;;;;;5043263;28;20072;-74
2023/05/04 08:58:11;;;;;;;14.23;7.07;;;25.90;78.00;;;;;;5048606;28;20473;-73
2023/05/04 09:00:38;;;;;;;16.08;7.18;;;25.90;77.30;;;;;;5035210;28;20033;-73
2023/05/04 09:03:06;;;;;;;16.98;7.72;;;26.00;76.70;;;;;;5038746;28;20518;-74
2023/05/04 09:05:32;;;;;;;14.23;7.50;;;26.50;76.50;;;;;;5043576;28;20021;-72
2023/05/04 09:07:58;;;;;;;19.38;7.70;;;27.10;75.10;;;;;;5038821;28;20029;-71
2023/05/04 09:10:24;;;;;;;16.88;7.18;;;27.70;73.80;;;;;;5050501;28;20032;-72
2023/05/04 09:12:52;;;;;;;14.38;7.47;;;28.00;72.60;;;;;;5038098;28;20033;-73
2023/05/04 09:15:19;;;;;;;15.40;8.13;;;28.30;72.40;;;;;;5045505;28;20836;-72
2023/05/04 09:18:02;;;;;;;13.93;7.25;;;28.60;70.70;;;;;;5045194;28;20044;-74
2023/05/04 09:20:29;;;;;;;13.88;7.60;;;29.00;70.20;;;;;;5046884;28;20025;-72
2023/05/04 09:23:06;;;;;;;13.25;7.25;;;29.30;69.90;;;;;;5038798;28;20025;-72
2023/05/04 09:25:33;;;;;;;16.45;7.60;;;29.50;69.10;;;;;;5053392;28;20025;-72
2023/05/04 09:27:59;;;;;;;13.18;7.60;;;29.40;68.60;;;;;;5040148;28;20107;-76
2023/05/04 09:30:25;;;;;;;16.88;8.35;;;28.90;68.20;;;;;;5049929;28;20500;-73
2023/05/04 09:32:51;;;;;;;15.25;7.95;;;28.60;68.60;;;;;;5032721;28;20030;-74
2023/05/04 09:35:29;;;;;;;16.60;7.57;;;28.70;68.70;;;;;;5041529;28;20017;-72
2023/05/04 09:37:56;;;;;;;14.32;8.35;;;28.90;68.60;;;;;;5047940;28;20032;-73
2023/05/04 09:40:39;;;;;;;16.10;7.82;;;28.70;68.50;;;;;;5039226;28;20025;-73
2023/05/04 09:43:06;;;;;;;13.60;7.68;;;28.70;68.60;;;;;;5039498;28;20017;-75
2023/05/04 09:45:45;;;;;;;15.77;8.30;;;28.70;68.60;;;;;;5043547;28;20030;-73
2023/05/04 09:48:27;;;;;;;14.63;7.60;;;28.80;67.80;;;;;;5043518;28;20426;-72
2023/05/04 09:50:56;;;;;;;14.68;8.38;;;28.90;68.20;;;;;;5038003;28;20017;-73
2023/05/04 09:53:26;;;;;;;14.80;7.97;;;28.80;68.30;;;;;;5051458;28;20139;-73
2023/05/04 09:56:19;;;;;;;16.95;7.78;;;28.90;68.00;;;;;;5040149;28;20404;-71
2023/05/04 09:58:46;;;;;;;15.40;7.97;;;29.30;67.50;;;;;;5049069;28;20445;-72
2023/05/04 10:01:11;;;;;;;14.27;7.50;;;29.70;67.30;;;;;;5040020;28;20071;-74
2023/05/04 10:03:37;;;;;;;18.13;7.63;;;30.20;66.30;;;;;;5041936;28;20421;-73
2023/05/04 10:06:07;;;;;;;10.50;7.03;;;30.50;65.80;;;;;;5043174;28;20014;-73
2023/05/04 10:08:34;;;;;;;13.35;7.10;;;30.70;65.30;;;;;;5049424;28;20025;-74
2023/05/04 10:11:00;;;;;;;15.55;7.50;;;30.50;65.00;;;;;;5024546;28;20025;-72
2023/05/04 10:13:26;;;;;;;14.75;7.53;;;30.50;64.80;;;;;;5041117;28;20025;-74
2023/05/04 10:16:17;;;;;;;14.45;7.20;;;30.40;64.70;;;;;;5039712;28;20128;-71
2023/05/04 10:19:20;;;;;;;16.43;8.20;;;30.20;65.10;;;;;;5049178;28;20029;-73
2023/05/04 10:22:10;;;;;;;15.73;7.80;;;30.30;65.10;;;;;;5035116;28;20397;-72
2023/05/04 10:25:18;;;;;;;16.67;7.18;;;30.40;64.90;;;;;;5035695;28;20022;-75
2023/05/04 10:28:15;;;;;;;16.13;7.65;;;30.60;64.70;;;;;;5040728;28;20049;-73
2023/05/04 10:30:41;;;;;;;15.50;7.50;;;30.80;64.30;;;;;;5041575;28;20028;-73
2023/05/04 10:33:07;;;;;;;16.52;8.18;;;30.80;64.20;;;;;;5045193;28;20013;-74
2023/05/04 10:35:32;;;;;;;15.25;7.20;;;30.40;64.70;;;;;;5039823;28;20037;-75
2023/05/04 10:37:58;;;;;;;16.25;8.00;;;30.10;65.50;;;;;;5045778;28;20079;-72
2023/05/04 10:40:36;;;;;;;14.65;7.60;;;29.90;65.40;;;;;;5040003;28;20031;-73
2023/05/04 10:43:02;;;;;;;16.88;8.00;;;29.70;65.50;;;;;;5037876;28;20025;-75
2023/05/04 10:45:38;;;;;;;14.63;7.82;;;29.40;66.40;;;;;;5043116;28;20034;-72
2023/05/04 10:48:06;;;;;;;15.15;7.75;;;29.20;66.40;;;;;;5039509;28;20029;-72
2023/05/04 10:50:50;;;;;;;14.93;7.47;;;29.20;66.80;;;;;;5035517;28;20407;-73
2023/05/04 10:53:17;;;;;;;15.75;7.32;;;29.40;66.10;;;;;;5044416;28;20037;-73
2023/05/04 10:55:44;;;;;;;13.82;7.43;;;29.60;65.80;;;;;;5042506;28;20090;-72
2023/05/04 10:58:15;;;;;;;13.85;7.47;;;29.70;65.30;;;;;;5045847;28;20033;-72
2023/05/04 11:00:42;;;;;;;15.60;8.13;;;29.60;65.50;;;;;;5048675;28;20032;-72
2023/05/04 11:03:07;;;;;;;14.18;7.68;;;29.90;65.10;;;;;;5038481;28;20021;-71
2023/05/04 11:05:44;;;;;;;13.02;7.65;;;30.20;64.70;;;;;;5043520;28;20025;-71
2023/05/04 11:08:20;;;;;;;15.10;8.88;;;30.40;64.70;;;;;;5036780;28;20389;-71
2023/05/04 11:10:47;;;;;;;14.20;7.40;;;30.60;64.70;;;;;;5015738;28;20055;-71
2023/05/04 11:13:13;;;;;;;13.82;7.60;;;30.70;64.10;;;;;;5025789;28;20515;-70
2023/05/04 11:15:50;;;;;;;17.60;7.68;;;30.70;64.10;;;;;;5027846;28;20029;-71
2023/05/04 11:18:39;;;;;;;14.68;7.22;;;30.60;64.10;;;;;;5016788;28;20033;-71
2023/05/04 11:21:07;;;;;;;14.43;8.20;;;30.40;64.20;;;;;;5032074;28;20112;-71
2023/05/04 11:23:32;;;;;;;14.68;7.60;;;30.50;64.40;;;;;;5038314;28;20173;-72
2023/05/04 11:26:05;;;;;;;13.60;7.68;;;30.70;63.70;;;;;;5038672;28;20025;-71
2023/05/04 11:28:33;;;;;;;13.10;7.55;;;31.00;62.90;;;;;;5032218;28;20511;-71
2023/05/04 11:30:59;;;;;;;12.82;7.32;;;31.30;63.10;;;;;;5026564;28;20053;-71
2023/05/04 11:33:24;;;;;;;16.17;8.40;;;31.40;62.40;;;;;;5037480;28;20079;-72
2023/05/04 11:36:00;;;;;;;15.07;7.80;;;31.10;62.50;;;;;;5035012;28;20261;-72
2023/05/04 11:38:25;;;;;;;17.77;8.27;;;30.90;62.30;;;;;;5030192;28;20053;-72
2023/05/04 11:40:51;;;;;;;14.52;8.13;;;30.80;62.70;;;;;;5046500;28;20045;-72
2023/05/04 11:43:17;;;;;;;15.65;7.97;;;30.90;62.90;;;;;;5039950;28;20029;-71
2023/05/04 11:45:46;;;;;;;15.10;8.65;;;31.00;62.80;;;;;;5044137;28;20480;-72
2023/05/04 11:48:12;;;;;;;14.25;8.68;;;31.00;62.80;;;;;;5050845;28;20155;-71
2023/05/04 11:50:38;;;;;;;16.55;8.73;;;30.90;63.10;;;;;;5036551;28;20123;-71
2023/05/04 11:53:06;;;;;;;15.45;8.35;;;31.10;62.90;;;;;;5049874;28;20033;-71
2023/05/04 11:55:31;;;;;;;16.02;8.93;;;31.20;63.30;;;;;;5044849;28;20033;-71
2023/05/04 11:57:59;;;;;;;14.15;8.15;;;31.10;63.30;;;;;;5039272;28;20087;-71
2023/05/04 12:00:42;;;;;;;15.57;8.05;;;31.00;63.30;;;;;;5051372;28;20412;-71
2023/05/04 12:03:16;;;;;;;19.95;8.55;;;31.00;62.90;;;;;;5026737;28;20370;-71
2023/05/04 12:05:46;;;;;;;14.18;8.25;;;31.20;62.70;;;;;;5043633;28;20044;-71
2023/05/04 12:08:26;;;;;;;14.25;8.20;;;31.20;63.00;;;;;;5047859;28;20392;-71
2023/05/04 12:11:23;;;;;;;13.15;7.72;;;31.40;62.60;;;;;;5023700;28;20488;-71
2023/05/04 12:14:03;;;;;;;16.08;8.07;;;31.70;62.00;;;;;;5041436;28;20074;-71
2023/05/04 12:16:29;;;;;;;14.55;7.93;;;31.90;62.00;;;;;;5051136;28;20051;-71
2023/05/04 12:19:11;;;;;;;14.93;8.40;;;32.10;62.10;;;;;;5038934;28;20025;-71
2023/05/04 12:21:52;;;;;;;14.32;8.77;;;32.10;61.60;;;;;;5043699;28;20426;-71
2023/05/04 12:24:20;;;;;;;17.90;8.30;;;32.00;61.80;;;;;;5041871;28;20025;-71
2023/05/04 12:26:46;;;;;;;17.38;7.50;;;31.90;61.60;;;;;;5034678;28;20032;-71
2023/05/04 12:29:11;;;;;;;13.00;7.63;;;31.80;61.50;;;;;;5046140;28;20386;-72
2023/05/04 12:31:37;;;;;;;13.75;8.10;;;31.50;61.80;;;;;;5043798;28;20107;-72
2023/05/04 12:34:02;;;;;;;19.42;8.20;;;31.20;62.10;;;;;;5038971;28;20042;-71
2023/05/04 12:36:28;;;;;;;16.85;8.48;;;30.90;62.70;;;;;;5037326;28;20060;-72
2023/05/04 12:38:53;;;;;;;14.43;8.00;;;30.70;62.70;;;;;;5050160;28;20025;-71
2023/05/04 12:41:19;;;;;;;16.20;8.63;;;30.50;62.20;;;;;;5041954;28;20021;-72
2023/05/04 12:43:44;;;;;;;15.57;8.35;;;30.10;62.60;;;;;;5041124;28;20026;-72